createdAt,value
2023-07-05T00:00:01.379Z,14.87
2023-07-05T00:05:00.770Z,14.84
2023-07-05T00:10:00.699Z,14.86
2023-07-05T00:15:00.835Z,14.89
2023-07-05T00:20:02.683Z,14.96
2023-07-05T00:25:02.709Z,14.99
2023-07-05T00:30:00.832Z,15.00
2023-07-05T00:35:00.722Z,15.00
2023-07-05T00:40:00.719Z,15.03
2023-07-05T00:45:09.129Z,15.06
2023-07-05T00:50:12.868Z,15.07
2023-07-05T00:55:00.825Z,15.07
2023-07-05T01:00:03.991Z,15.06
2023-07-05T01:05:01.430Z,15.02
2023-07-05T01:10:00.803Z,15.01
2023-07-05T01:15:13.098Z,15.05
2023-07-05T01:20:09.042Z,15.07
2023-07-05T01:25:10.712Z,15.10
2023-07-05T01:30:10.665Z,15.13
2023-07-05T01:35:09.615Z,15.14
2023-07-05T01:40:20.316Z,15.12
2023-07-05T01:45:01.166Z,15.06
2023-07-05T01:50:12.038Z,15.08
2023-07-05T01:55:06.775Z,15.09
2023-07-05T02:00:08.639Z,15.17
2023-07-05T02:05:02.837Z,15.13
2023-07-05T02:10:01.287Z,15.12
2023-07-05T02:15:00.955Z,15.17
2023-07-05T02:20:00.980Z,15.20
2023-07-05T02:25:00.737Z,15.19
2023-07-05T02:30:00.944Z,15.07
2023-07-05T02:35:00.921Z,14.79
2023-07-05T02:40:01.741Z,14.48
2023-07-05T02:45:00.757Z,14.22
2023-07-05T02:50:00.716Z,13.98
2023-07-05T02:55:00.740Z,13.75
2023-07-05T03:00:01.099Z,13.54
2023-07-05T03:05:06.506Z,13.43
2023-07-05T03:10:00.774Z,13.38
2023-07-05T03:15:00.720Z,13.38
2023-07-05T03:20:00.804Z,13.34
2023-07-05T03:25:00.727Z,13.23
2023-07-05T03:30:00.744Z,13.24
2023-07-05T03:35:01.781Z,13.19
2023-07-05T03:40:00.714Z,13.21
2023-07-05T03:45:00.770Z,13.31
2023-07-05T03:50:00.850Z,13.40
2023-07-05T03:55:00.712Z,13.36
2023-07-05T04:00:02.825Z,13.29
2023-07-05T04:05:00.740Z,13.26
2023-07-05T04:10:00.690Z,13.15
2023-07-05T04:15:00.737Z,13.08
2023-07-05T04:20:00.746Z,13.05
2023-07-05T04:25:00.812Z,13.08
2023-07-05T04:30:01.572Z,13.12
2023-07-05T04:35:00.695Z,13.23
2023-07-05T04:40:03.053Z,13.31
2023-07-05T04:45:00.704Z,13.43
2023-07-05T04:50:00.745Z,13.53
2023-07-05T04:55:00.737Z,13.63
2023-07-05T05:00:01.710Z,13.88
2023-07-05T05:05:01.766Z,14.24
2023-07-05T05:10:03.258Z,14.29
2023-07-05T05:15:01.565Z,14.41
2023-07-05T05:20:00.712Z,14.05
2023-07-05T05:25:00.708Z,13.85
2023-07-05T05:30:00.737Z,13.73
2023-07-05T05:35:00.731Z,13.59
2023-07-05T05:40:00.744Z,13.51
2023-07-05T05:45:00.747Z,13.16
2023-07-05T05:50:00.798Z,12.77
2023-07-05T05:55:01.265Z,12.85
2023-07-05T06:00:02.664Z,13.10
2023-07-05T06:05:00.712Z,12.98
2023-07-05T06:10:00.794Z,12.94
2023-07-05T06:15:00.754Z,12.78
2023-07-05T06:20:00.789Z,12.55
2023-07-05T06:25:01.220Z,12.09
2023-07-05T06:30:00.883Z,11.91
2023-07-05T06:35:00.712Z,11.87
2023-07-05T06:40:01.244Z,11.84
2023-07-05T06:45:00.705Z,11.78
2023-07-05T06:50:00.953Z,11.73
2023-07-05T06:55:00.730Z,11.67
2023-07-05T07:00:01.034Z,11.68
2023-07-05T07:05:01.047Z,11.70
2023-07-05T07:10:01.884Z,11.78
2023-07-05T07:15:00.749Z,11.90
2023-07-05T07:20:01.158Z,12.01
2023-07-05T07:25:02.205Z,12.02
2023-07-05T07:30:00.748Z,12.06
2023-07-05T07:35:00.934Z,12.18
2023-07-05T07:40:00.735Z,12.18
2023-07-05T07:45:00.698Z,12.13
2023-07-05T07:50:02.145Z,12.05
2023-07-05T07:55:00.699Z,12.15
2023-07-05T08:00:01.245Z,12.17
2023-07-05T08:05:01.076Z,12.21
2023-07-05T08:10:00.744Z,12.27
2023-07-05T08:15:01.233Z,12.31
2023-07-05T08:20:00.998Z,12.42
2023-07-05T08:25:00.696Z,12.61
2023-07-05T08:30:00.767Z,12.82
2023-07-05T08:35:00.728Z,13.08
2023-07-05T08:40:00.888Z,13.37
2023-07-05T08:45:11.671Z,13.89
2023-07-05T08:50:29.035Z,14.13
2023-07-05T08:55:05.180Z,14.25
2023-07-05T09:00:07.104Z,14.56
2023-07-05T09:05:00.816Z,14.81
2023-07-05T09:10:09.992Z,14.98
2023-07-05T09:15:13.984Z,15.08
2023-07-05T09:20:03.969Z,15.15
2023-07-05T09:25:01.256Z,15.25
2023-07-05T09:30:03.587Z,15.37
2023-07-05T09:35:01.224Z,15.34
2023-07-05T09:40:14.781Z,15.39
2023-07-05T09:45:01.029Z,15.59
2023-07-05T09:50:00.719Z,15.69
2023-07-05T09:55:03.252Z,15.79
2023-07-05T10:00:04.476Z,15.78
2023-07-05T10:05:13.182Z,16.04
2023-07-05T10:10:09.029Z,16.30
2023-07-05T10:15:01.920Z,16.50
2023-07-05T10:20:00.719Z,16.62
2023-07-05T10:25:04.944Z,16.69
2023-07-05T10:30:03.635Z,16.97
2023-07-05T10:35:01.381Z,17.08
2023-07-05T10:40:02.619Z,17.21
2023-07-05T10:45:01.848Z,17.69
2023-07-05T10:50:05.735Z,18.27
2023-07-05T10:55:11.310Z,18.39
2023-07-05T11:00:29.648Z,18.52
2023-07-05T11:05:02.316Z,18.76
2023-07-05T11:10:00.739Z,19.04
2023-07-05T11:15:01.798Z,19.05
2023-07-05T11:20:01.686Z,19.14
2023-07-05T11:25:00.711Z,18.92
2023-07-05T11:30:00.712Z,18.91
2023-07-05T11:35:00.778Z,19.31
2023-07-05T11:40:00.724Z,19.08
2023-07-05T11:45:03.975Z,18.72
2023-07-05T11:50:01.815Z,19.01
2023-07-05T11:55:20.084Z,18.55
2023-07-05T12:00:12.603Z,17.93
2023-07-05T12:05:03.407Z,17.27
2023-07-05T12:10:01.650Z,17.88
2023-07-05T12:15:00.700Z,18.85
2023-07-05T12:20:00.806Z,19.14
2023-07-05T12:25:00.749Z,18.77
2023-07-05T12:30:01.657Z,18.42
2023-07-05T12:35:05.246Z,18.09
2023-07-05T12:40:18.654Z,17.91
2023-07-05T12:45:08.881Z,17.33
2023-07-05T12:50:04.982Z,16.87
2023-07-05T12:55:00.692Z,16.72
2023-07-05T13:00:06.544Z,17.13
2023-07-05T13:05:03.302Z,17.16
2023-07-05T13:10:04.231Z,17.00
2023-07-05T13:15:02.913Z,17.04
2023-07-05T13:20:08.060Z,17.39
2023-07-05T13:25:00.717Z,17.73
2023-07-05T13:30:14.173Z,18.49
2023-07-05T13:35:01.165Z,18.66
2023-07-05T13:40:03.143Z,18.74
2023-07-05T13:45:00.762Z,18.58
2023-07-05T13:50:02.776Z,19.00
2023-07-05T13:55:00.803Z,19.58
2023-07-05T14:00:01.208Z,19.67
2023-07-05T14:05:02.398Z,19.71
2023-07-05T14:10:00.800Z,19.98
2023-07-05T14:15:00.848Z,19.77
2023-07-05T14:20:00.768Z,19.90
2023-07-05T14:25:00.697Z,19.39
2023-07-05T14:30:00.736Z,18.95
2023-07-05T14:35:00.787Z,18.79
2023-07-05T14:40:00.744Z,18.74
2023-07-05T14:45:00.778Z,18.96
2023-07-05T14:50:00.796Z,19.39
2023-07-05T14:55:00.731Z,19.40
2023-07-05T15:00:01.051Z,19.34
2023-07-05T15:05:00.816Z,19.20
2023-07-05T15:10:00.737Z,19.57
2023-07-05T15:15:00.832Z,19.09
2023-07-05T15:20:00.709Z,18.94
2023-07-05T15:25:00.770Z,19.16
2023-07-05T15:30:00.774Z,20.08
2023-07-05T15:35:02.562Z,20.24
2023-07-05T15:40:00.947Z,20.38
2023-07-05T15:45:02.120Z,20.09
2023-07-05T15:50:01.215Z,19.99
2023-07-05T15:55:01.402Z,19.77
2023-07-05T16:00:01.527Z,19.38
2023-07-05T16:05:00.798Z,19.14
2023-07-05T16:10:01.000Z,19.24
2023-07-05T16:15:00.776Z,19.35
2023-07-05T16:20:00.994Z,19.86
2023-07-05T16:25:00.708Z,20.34
2023-07-05T16:30:00.989Z,20.74
2023-07-05T16:35:01.036Z,20.26
2023-07-05T16:40:01.405Z,19.50
2023-07-05T16:45:00.732Z,19.18
2023-07-05T16:50:00.945Z,18.83
2023-07-05T16:55:00.777Z,18.40
2023-07-05T17:00:02.772Z,16.82
2023-07-05T17:05:00.727Z,15.36
2023-07-05T17:10:00.726Z,15.04
2023-07-05T17:15:00.714Z,14.92
2023-07-05T17:20:02.928Z,15.03
2023-07-05T17:25:00.814Z,15.06
2023-07-05T17:30:00.792Z,15.07
2023-07-05T17:35:00.751Z,15.08
2023-07-05T17:40:00.698Z,15.23
2023-07-05T17:45:00.752Z,15.61
2023-07-05T17:50:00.925Z,16.16
2023-07-05T17:55:01.401Z,16.30
2023-07-05T18:00:01.260Z,16.02
2023-07-05T18:05:00.762Z,15.68
2023-07-05T18:10:00.768Z,15.53
2023-07-05T18:15:00.670Z,15.45
2023-07-05T18:20:00.700Z,15.45
2023-07-05T18:25:00.737Z,15.42
2023-07-05T18:30:00.736Z,15.39
2023-07-05T18:35:00.719Z,15.31
2023-07-05T18:40:00.761Z,15.27
2023-07-05T18:45:00.705Z,15.28
2023-07-05T18:50:00.759Z,15.37
2023-07-05T18:55:00.710Z,15.37
2023-07-05T19:00:01.238Z,15.36
2023-07-05T19:05:00.704Z,15.35
2023-07-05T19:10:00.667Z,15.30
2023-07-05T19:15:00.819Z,15.20
2023-07-05T19:20:00.714Z,15.13
2023-07-05T19:25:02.703Z,15.15
2023-07-05T19:30:00.727Z,15.06
2023-07-05T19:35:00.682Z,14.71
2023-07-05T19:40:00.735Z,14.56
2023-07-05T19:45:00.679Z,14.37
2023-07-05T19:50:00.746Z,14.15
2023-07-05T19:55:00.688Z,13.88
2023-07-05T20:00:03.040Z,13.63
2023-07-05T20:05:00.698Z,13.40
2023-07-05T20:10:00.716Z,13.15
2023-07-05T20:15:00.780Z,12.90
2023-07-05T20:20:00.780Z,12.65
2023-07-05T20:25:00.712Z,12.46
2023-07-05T20:30:00.732Z,12.29
2023-07-05T20:35:00.775Z,12.14
2023-07-05T20:40:00.894Z,12.00
2023-07-05T20:45:00.710Z,11.92
2023-07-05T20:50:00.953Z,11.83
2023-07-05T20:55:00.736Z,11.75
2023-07-05T21:00:01.443Z,11.72
2023-07-05T21:05:01.216Z,11.67
2023-07-05T21:10:00.692Z,11.57
2023-07-05T21:15:00.744Z,11.53
2023-07-05T21:20:00.681Z,11.48
2023-07-05T21:25:00.729Z,11.48
2023-07-05T21:30:00.771Z,11.51
2023-07-05T21:35:00.681Z,11.54
2023-07-05T21:40:00.737Z,11.55
2023-07-05T21:45:00.681Z,11.58
2023-07-05T21:50:00.715Z,11.57
2023-07-05T21:55:01.008Z,11.50
2023-07-05T22:00:02.710Z,11.46
2023-07-05T22:05:01.403Z,11.44
2023-07-05T22:10:00.706Z,11.45
2023-07-05T22:15:01.211Z,11.47
2023-07-05T22:20:00.968Z,11.46
2023-07-05T22:25:00.710Z,11.47
2023-07-05T22:30:00.763Z,11.44
2023-07-05T22:35:02.035Z,11.45
2023-07-05T22:40:02.479Z,11.53
2023-07-05T22:45:00.738Z,11.55
2023-07-05T22:50:00.778Z,11.49
2023-07-05T22:55:00.798Z,11.48
2023-07-05T23:00:01.386Z,11.54
2023-07-05T23:05:00.742Z,11.58
2023-07-05T23:10:00.704Z,11.53
2023-07-05T23:15:00.782Z,11.50
2023-07-05T23:20:02.268Z,11.51
2023-07-05T23:25:00.772Z,11.56
2023-07-05T23:30:00.919Z,11.60
2023-07-05T23:35:01.346Z,11.64
2023-07-05T23:40:00.743Z,11.75
2023-07-05T23:45:00.710Z,11.87
2023-07-05T23:50:00.769Z,11.97
2023-07-05T23:55:00.842Z,12.08
